sensor_id;sensor_type;location;lat;lon;timestamp;pressure;altitude;pressure_sealevel;temperature;humidity
70133;BME280;57495;49.922;7.966;2023-03-01T00:01:27;101066.00;;;0.41;68.78
70133;BME280;57495;49.922;7.966;2023-03-01T00:03:29;101061.81;;;0.35;69.03
70133;BME280;57495;49.922;7.966;2023-03-01T00:05:32;101056.16;;;0.46;68.93
70133;BME280;57495;49.922;7.966;2023-03-01T00:07:33;101058.91;;;0.43;69.04
70133;BME280;57495;49.922;7.966;2023-03-01T00:09:36;101056.47;;;0.37;69.32
70133;BME280;57495;49.922;7.966;2023-03-01T00:11:38;101057.41;;;0.36;69.25
70133;BME280;57495;49.922;7.966;2023-03-01T00:13:40;101056.63;;;0.32;69.49
70133;BME280;57495;49.922;7.966;2023-03-01T00:15:42;101063.41;;;0.40;69.19
70133;BME280;57495;49.922;7.966;2023-03-01T00:17:45;101056.47;;;0.37;69.39
70133;BME280;57495;49.922;7.966;2023-03-01T00:19:46;101061.63;;;0.40;69.14
70133;BME280;57495;49.922;7.966;2023-03-01T00:21:48;101065.88;;;0.44;69.22
70133;BME280;57495;49.922;7.966;2023-03-01T00:23:50;101071.22;;;0.43;69.28
70133;BME280;57495;49.922;7.966;2023-03-01T00:25:52;101067.59;;;0.45;69.25
70133;BME280;57495;49.922;7.966;2023-03-01T00:27:53;101071.13;;;0.44;69.03
70133;BME280;57495;49.922;7.966;2023-03-01T00:29:55;101063.94;;;0.49;69.12
70133;BME280;57495;49.922;7.966;2023-03-01T00:31:58;101063.94;;;0.49;68.88
70133;BME280;57495;49.922;7.966;2023-03-01T00:34:03;101071.13;;;0.44;69.03
70133;BME280;57495;49.922;7.966;2023-03-01T00:36:06;101060.63;;;0.44;68.91
70133;BME280;57495;49.922;7.966;2023-03-01T00:38:07;101060.56;;;0.46;69.12
70133;BME280;57495;49.922;7.966;2023-03-01T00:40:10;101054.44;;;0.45;68.94
70133;BME280;57495;49.922;7.966;2023-03-01T00:42:11;101053.66;;;0.43;68.84
70133;BME280;57495;49.922;7.966;2023-03-01T00:44:15;101048.47;;;0.40;69.11
70133;BME280;57495;49.922;7.966;2023-03-01T00:46:21;101045.84;;;0.40;69.33
70133;BME280;57495;49.922;7.966;2023-03-01T00:48:22;101054.81;;;0.34;69.51
70133;BME280;57495;49.922;7.966;2023-03-01T00:50:25;101054.75;;;0.36;69.59
70133;BME280;57495;49.922;7.966;2023-03-01T00:52:27;101052.19;;;0.34;69.63
70133;BME280;57495;49.922;7.966;2023-03-01T00:54:28;101043.53;;;0.31;69.98
70133;BME280;57495;49.922;7.966;2023-03-01T00:56:30;101050.53;;;0.32;69.97
70133;BME280;57495;49.922;7.966;2023-03-01T00:58:35;101048.88;;;0.28;69.91
70133;BME280;57495;49.922;7.966;2023-03-01T01:00:36;101043.63;;;0.28;70.02
70133;BME280;57495;49.922;7.966;2023-03-01T01:02:38;101042.81;;;0.26;69.84
70133;BME280;57495;49.922;7.966;2023-03-01T01:04:39;101041.00;;;0.28;69.91
70133;BME280;57495;49.922;7.966;2023-03-01T01:06:43;101045.44;;;0.26;69.88
70133;BME280;57495;49.922;7.966;2023-03-01T01:08:45;101031.31;;;0.30;69.62
70133;BME280;57495;49.922;7.966;2023-03-01T01:10:47;101033.09;;;0.28;69.70
70133;BME280;57495;49.922;7.966;2023-03-01T01:12:48;101040.94;;;0.29;69.66
70133;BME280;57495;49.922;7.966;2023-03-01T01:14:52;101037.63;;;0.24;69.99
70133;BME280;57495;49.922;7.966;2023-03-01T01:16:53;101028.81;;;0.25;69.91
70133;BME280;57495;49.922;7.966;2023-03-01T01:18:55;101027.84;;;0.28;69.76
70133;BME280;57495;49.922;7.966;2023-03-01T01:20:56;101016.47;;;0.27;69.89
70133;BME280;57495;49.922;7.966;2023-03-01T01:22:59;101019.84;;;0.31;69.86
70133;BME280;57495;49.922;7.966;2023-03-01T01:25:01;101020.22;;;0.20;70.31
70133;BME280;57495;49.922;7.966;2023-03-01T01:27:02;101017.44;;;0.25;69.92
70133;BME280;57495;49.922;7.966;2023-03-01T01:29:04;101010.38;;;0.27;70.02
70133;BME280;57495;49.922;7.966;2023-03-01T01:31:06;101008.75;;;0.23;70.06
70133;BME280;57495;49.922;7.966;2023-03-01T01:33:08;101010.50;;;0.22;70.22
70133;BME280;57495;49.922;7.966;2023-03-01T01:35:09;100995.59;;;0.23;70.55
70133;BME280;57495;49.922;7.966;2023-03-01T01:37:11;100999.09;;;0.23;70.33
70133;BME280;57495;49.922;7.966;2023-03-01T01:39:14;100992.16;;;0.21;70.38
70133;BME280;57495;49.922;7.966;2023-03-01T01:41:16;100991.28;;;0.20;70.45
70133;BME280;57495;49.922;7.966;2023-03-01T01:43:21;100986.06;;;0.18;70.74
70133;BME280;57495;49.922;7.966;2023-03-01T01:45:29;100987.84;;;0.18;70.83
70133;BME280;57495;49.922;7.966;2023-03-01T01:47:30;100985.97;;;0.22;70.60
70133;BME280;57495;49.922;7.966;2023-03-01T01:49:35;100986.06;;;0.18;70.80
70133;BME280;57495;49.922;7.966;2023-03-01T01:51:40;100991.47;;;0.15;70.99
70133;BME280;57495;49.922;7.966;2023-03-01T01:53:44;100981.88;;;0.13;70.97
70133;BME280;57495;49.922;7.966;2023-03-01T01:55:51;100983.53;;;0.17;71.11
70133;BME280;57495;49.922;7.966;2023-03-01T01:57:56;100983.53;;;0.17;71.00
70133;BME280;57495;49.922;7.966;2023-03-01T02:00:05;100984.19;;;0.22;70.88
70133;BME280;57495;49.922;7.966;2023-03-01T02:02:07;100982.47;;;0.23;70.70
70133;BME280;57495;49.922;7.966;2023-03-01T02:04:09;100984.28;;;0.21;70.77
70133;BME280;57495;49.922;7.966;2023-03-01T02:06:18;100976.47;;;0.17;71.09
70133;BME280;57495;49.922;7.966;2023-03-01T02:08:25;100983.56;;;0.15;71.27
70133;BME280;57495;49.922;7.966;2023-03-01T02:10:28;100972.81;;;-0.04;72.11
70133;BME280;57495;49.922;7.966;2023-03-01T02:12:32;100969.94;;;0.04;71.77
70133;BME280;57495;49.922;7.966;2023-03-01T02:14:35;100970.78;;;0.05;71.77
70133;BME280;57495;49.922;7.966;2023-03-01T02:16:36;100967.41;;;0.01;72.08
70133;BME280;57495;49.922;7.966;2023-03-01T02:18:38;100965.25;;;0.12;71.42
70133;BME280;57495;49.922;7.966;2023-03-01T02:20:44;100960.31;;;0.03;72.20
70133;BME280;57495;49.922;7.966;2023-03-01T02:22:51;100963.78;;;0.04;71.57
70133;BME280;57495;49.922;7.966;2023-03-01T02:25:03;100964.72;;;0.03;71.82
70133;BME280;57495;49.922;7.966;2023-03-01T02:27:09;100962.81;;;0.08;71.70
70133;BME280;57495;49.922;7.966;2023-03-01T02:29:12;100964.47;;;0.10;71.86
70133;BME280;57495;49.922;7.966;2023-03-01T02:31:16;100960.53;;;-0.03;72.60
70133;BME280;57495;49.922;7.966;2023-03-01T02:33:37;100964.78;;;0.01;72.01
70133;BME280;57495;49.922;7.966;2023-03-01T02:35:40;100955.75;;;0.08;71.76
70133;BME280;57495;49.922;7.966;2023-03-01T02:37:42;100963.91;;;0.01;71.97
70133;BME280;57495;49.922;7.966;2023-03-01T02:39:46;100955.19;;;0.00;71.97
70133;BME280;57495;49.922;7.966;2023-03-01T02:41:51;100962.13;;;0.01;71.95
70133;BME280;57495;49.922;7.966;2023-03-01T02:43:53;100958.22;;;-0.12;72.91
70133;BME280;57495;49.922;7.966;2023-03-01T02:45:58;100956.53;;;-0.15;72.89
70133;BME280;57495;49.922;7.966;2023-03-01T02:47:59;100947.38;;;-0.03;72.50
70133;BME280;57495;49.922;7.966;2023-03-01T02:50:00;100943.25;;;-0.10;72.81
70133;BME280;57495;49.922;7.966;2023-03-01T02:52:16;100938.25;;;-0.18;73.13
70133;BME280;57495;49.922;7.966;2023-03-01T02:54:29;100947.13;;;0.05;72.56
70133;BME280;57495;49.922;7.966;2023-03-01T02:56:32;100939.81;;;-0.12;73.31
70133;BME280;57495;49.922;7.966;2023-03-01T02:58:33;100936.56;;;-0.21;73.48
70133;BME280;57495;49.922;7.966;2023-03-01T03:00:42;100937.91;;;-0.07;73.13
70133;BME280;57495;49.922;7.966;2023-03-01T03:02:50;100937.91;;;-0.07;72.44
70133;BME280;57495;49.922;7.966;2023-03-01T03:04:52;100941.19;;;-0.02;73.02
70133;BME280;57495;49.922;7.966;2023-03-01T03:06:53;100923.72;;;-0.03;73.02
70133;BME280;57495;49.922;7.966;2023-03-01T03:08:55;100922.34;;;0.12;72.70
70133;BME280;57495;49.922;7.966;2023-03-01T03:10:56;100919.75;;;0.10;72.85
70133;BME280;57495;49.922;7.966;2023-03-01T03:12:59;100922.47;;;0.07;72.93
70133;BME280;57495;49.922;7.966;2023-03-01T03:15:02;100917.34;;;0.04;73.00
70133;BME280;57495;49.922;7.966;2023-03-01T03:17:08;100917.94;;;0.12;73.12
70133;BME280;57495;49.922;7.966;2023-03-01T03:19:11;100907.72;;;0.03;73.24
70133;BME280;57495;49.922;7.966;2023-03-01T03:21:14;100910.84;;;0.14;73.00
70133;BME280;57495;49.922;7.966;2023-03-01T03:23:16;100906.22;;;0.21;72.79
70133;BME280;57495;49.922;7.966;2023-03-01T03:25:18;100912.34;;;0.22;72.71
70133;BME280;57495;49.922;7.966;2023-03-01T03:27:20;100904.88;;;0.34;72.42
70133;BME280;57495;49.922;7.966;2023-03-01T03:29:21;100904.06;;;0.32;72.40
70133;BME280;57495;49.922;7.966;2023-03-01T03:31:23;100907.56;;;0.33;72.65
70133;BME280;57495;49.922;7.966;2023-03-01T03:33:24;100903.97;;;0.35;72.57
70133;BME280;57495;49.922;7.966;2023-03-01T03:35:28;100903.59;;;0.21;72.83
70133;BME280;57495;49.922;7.966;2023-03-01T03:37:31;100906.38;;;0.16;73.07
70133;BME280;57495;49.922;7.966;2023-03-01T03:39:50;100894.78;;;0.22;72.95
70133;BME280;57495;49.922;7.966;2023-03-01T03:41:54;100903.56;;;0.23;72.45
70133;BME280;57495;49.922;7.966;2023-03-01T03:43:56;100901.44;;;0.07;73.07
70133;BME280;57495;49.922;7.966;2023-03-01T03:45:57;100897.00;;;0.09;73.23
70133;BME280;57495;49.922;7.966;2023-03-01T03:47:59;100895.06;;;0.14;72.58
70133;BME280;57495;49.922;7.966;2023-03-01T03:50:01;100893.47;;;0.10;72.99
70133;BME280;57495;49.922;7.966;2023-03-01T03:52:03;100890.88;;;0.09;73.09
70133;BME280;57495;49.922;7.966;2023-03-01T03:54:05;100887.03;;;0.19;72.70
70133;BME280;57495;49.922;7.966;2023-03-01T03:56:07;100878.22;;;0.20;72.69
70133;BME280;57495;49.922;7.966;2023-03-01T03:58:09;100875.00;;;0.12;73.21
70133;BME280;57495;49.922;7.966;2023-03-01T04:00:12;100874.78;;;0.18;73.02
70133;BME280;57495;49.922;7.966;2023-03-01T04:02:14;100870.81;;;0.06;73.17
70133;BME280;57495;49.922;7.966;2023-03-01T04:04:22;100871.91;;;0.01;73.56
70133;BME280;57495;49.922;7.966;2023-03-01T04:06:23;100870.50;;;0.15;73.31
70133;BME280;57495;49.922;7.966;2023-03-01T04:08:26;100871.94;;;-0.01;73.62
70133;BME280;57495;49.922;7.966;2023-03-01T04:10:29;100871.94;;;-0.01;73.67
70133;BME280;57495;49.922;7.966;2023-03-01T04:12:31;100872.97;;;-0.05;73.62
70133;BME280;57495;49.922;7.966;2023-03-01T04:14:34;100868.81;;;0.13;73.20
70133;BME280;57495;49.922;7.966;2023-03-01T04:16:35;100875.84;;;0.12;73.19
70133;BME280;57495;49.922;7.966;2023-03-01T04:18:37;100879.19;;;0.17;73.53
70133;BME280;57495;49.922;7.966;2023-03-01T04:20:38;100866.72;;;0.23;73.35
70133;BME280;57495;49.922;7.966;2023-03-01T04:22:40;100867.91;;;0.14;73.21
70133;BME280;57495;49.922;7.966;2023-03-01T04:24:43;100871.09;;;-0.02;74.03
70133;BME280;57495;49.922;7.966;2023-03-01T04:26:44;100870.41;;;-0.07;74.51
70133;BME280;57495;49.922;7.966;2023-03-01T04:28:46;100869.16;;;0.04;74.29
70133;BME280;57495;49.922;7.966;2023-03-01T04:30:49;100865.28;;;-0.11;74.69
70133;BME280;57495;49.922;7.966;2023-03-01T04:32:51;100868.91;;;-0.14;74.25
70133;BME280;57495;49.922;7.966;2023-03-01T04:34:52;100863.88;;;-0.20;74.35
70133;BME280;57495;49.922;7.966;2023-03-01T04:36:54;100864.94;;;-0.26;74.39
70133;BME280;57495;49.922;7.966;2023-03-01T04:38:56;100868.03;;;-0.14;74.16
70133;BME280;57495;49.922;7.966;2023-03-01T04:40:59;100874.69;;;-0.04;73.35
70133;BME280;57495;49.922;7.966;2023-03-01T04:43:01;100876.97;;;-0.18;73.98
70133;BME280;57495;49.922;7.966;2023-03-01T04:45:03;100869.97;;;-0.20;73.90
70133;BME280;57495;49.922;7.966;2023-03-01T04:47:13;100874.19;;;-0.15;73.77
70133;BME280;57495;49.922;7.966;2023-03-01T04:49:14;100866.97;;;-0.09;73.70
70133;BME280;57495;49.922;7.966;2023-03-01T04:51:16;100867.38;;;-0.21;74.19
70133;BME280;57495;49.922;7.966;2023-03-01T04:53:18;100875.31;;;-0.23;74.44
70133;BME280;57495;49.922;7.966;2023-03-01T04:55:19;100871.56;;;-0.15;73.88
70133;BME280;57495;49.922;7.966;2023-03-01T04:57:22;100868.84;;;-0.12;74.05
70133;BME280;57495;49.922;7.966;2023-03-01T04:59:27;100870.41;;;-0.07;73.60
70133;BME280;57495;49.922;7.966;2023-03-01T05:01:28;100867.28;;;-0.18;74.15
70133;BME280;57495;49.922;7.966;2023-03-01T05:03:30;100859.88;;;-0.32;74.74
70133;BME280;57495;49.922;7.966;2023-03-01T05:05:37;100870.06;;;-0.23;74.29
70133;BME280;57495;49.922;7.966;2023-03-01T05:07:39;100872.59;;;-0.20;74.18
70133;BME280;57495;49.922;7.966;2023-03-01T05:09:43;100865.13;;;-0.32;74.64
70133;BME280;57495;49.922;7.966;2023-03-01T05:11:45;100872.59;;;-0.20;74.45
70133;BME280;57495;49.922;7.966;2023-03-01T05:13:48;100865.06;;;-0.30;74.72
70133;BME280;57495;49.922;7.966;2023-03-01T05:15:56;100864.19;;;-0.29;74.41
70133;BME280;57495;49.922;7.966;2023-03-01T05:17:59;100863.91;;;-0.22;73.81
70133;BME280;57495;49.922;7.966;2023-03-01T05:20:01;100857.63;;;-0.17;73.79
70133;BME280;57495;49.922;7.966;2023-03-01T05:22:07;100854.19;;;-0.20;73.62
70133;BME280;57495;49.922;7.966;2023-03-01T05:24:08;100862.78;;;-0.14;73.55
70133;BME280;57495;49.922;7.966;2023-03-01T05:26:12;100863.09;;;-0.24;73.69
70133;BME280;57495;49.922;7.966;2023-03-01T05:28:13;100860.31;;;-0.19;73.83
70133;BME280;57495;49.922;7.966;2023-03-01T05:30:19;100870.72;;;-0.16;73.50
70133;BME280;57495;49.922;7.966;2023-03-01T05:32:21;100866.91;;;-0.07;73.06
70133;BME280;57495;49.922;7.966;2023-03-01T05:34:23;100871.06;;;0.00;72.95
70133;BME280;57495;49.922;7.966;2023-03-01T05:36:25;100869.16;;;0.04;72.60
70133;BME280;57495;49.922;7.966;2023-03-01T05:38:29;100866.69;;;-0.01;72.32
70133;BME280;57495;49.922;7.966;2023-03-01T05:40:33;100864.88;;;0.01;72.57
70133;BME280;57495;49.922;7.966;2023-03-01T05:42:35;100863.22;;;-0.02;72.38
70133;BME280;57495;49.922;7.966;2023-03-01T05:44:36;100865.91;;;-0.03;72.67
70133;BME280;57495;49.922;7.966;2023-03-01T05:46:48;100864.97;;;-0.02;72.37
70133;BME280;57495;49.922;7.966;2023-03-01T05:48:50;100860.16;;;-0.14;72.87
70133;BME280;57495;49.922;7.966;2023-03-01T05:50:51;100857.41;;;-0.11;72.92
70133;BME280;57495;49.922;7.966;2023-03-01T05:52:58;100858.75;;;0.01;72.90
70133;BME280;57495;49.922;7.966;2023-03-01T05:54:59;100868.28;;;0.03;72.60
70133;BME280;57495;49.922;7.966;2023-03-01T05:57:01;100860.41;;;0.03;72.70
70133;BME280;57495;49.922;7.966;2023-03-01T05:59:03;100865.72;;;0.02;72.87
70133;BME280;57495;49.922;7.966;2023-03-01T06:01:11;100861.34;;;0.02;73.17
70133;BME280;57495;49.922;7.966;2023-03-01T06:03:17;100863.16;;;0.00;73.26
70133;BME280;57495;49.922;7.966;2023-03-01T06:05:19;100862.28;;;-0.01;73.43
70133;BME280;57495;49.922;7.966;2023-03-01T06:07:20;100864.06;;;-0.01;73.12
70133;BME280;57495;49.922;7.966;2023-03-01T06:09:21;100869.31;;;-0.01;73.33
70133;BME280;57495;49.922;7.966;2023-03-01T06:11:23;100863.31;;;-0.05;73.37
70133;BME280;57495;49.922;7.966;2023-03-01T06:13:25;100859.34;;;-0.16;73.65
70133;BME280;57495;49.922;7.966;2023-03-01T06:15:29;100861.38;;;-0.25;74.53
70133;BME280;57495;49.922;7.966;2023-03-01T06:17:32;100859.56;;;-0.23;74.30
70133;BME280;57495;49.922;7.966;2023-03-01T06:19:39;100862.31;;;-0.26;74.33
70133;BME280;57495;49.922;7.966;2023-03-01T06:21:41;100870.06;;;-0.23;74.09
70133;BME280;57495;49.922;7.966;2023-03-01T06:23:45;100869.38;;;-0.28;74.24
70133;BME280;57495;49.922;7.966;2023-03-01T06:25:46;100864.06;;;-0.26;74.21
70133;BME280;57495;49.922;7.966;2023-03-01T06:27:51;100863.19;;;-0.27;74.41
70133;BME280;57495;49.922;7.966;2023-03-01T06:29:53;100865.56;;;-0.19;73.74
70133;BME280;57495;49.922;7.966;2023-03-01T06:32:02;100862.88;;;-0.17;73.33
70133;BME280;57495;49.922;7.966;2023-03-01T06:34:03;100862.47;;;-0.05;73.23
70133;BME280;57495;49.922;7.966;2023-03-01T06:36:07;100859.84;;;-0.05;73.41
70133;BME280;57495;49.922;7.966;2023-03-01T06:38:10;100860.34;;;0.05;73.06
70133;BME280;57495;49.922;7.966;2023-03-01T06:40:12;100859.34;;;0.09;72.90
70133;BME280;57495;49.922;7.966;2023-03-01T06:42:14;100857.53;;;0.09;72.85
70133;BME280;57495;49.922;7.966;2023-03-01T06:44:15;100856.19;;;-0.01;73.31
70133;BME280;57495;49.922;7.966;2023-03-01T06:46:17;100856.66;;;0.10;72.92
70133;BME280;57495;49.922;7.966;2023-03-01T06:48:18;100852.88;;;0.17;73.21
70133;BME280;57495;49.922;7.966;2023-03-01T06:50:19;100853.63;;;0.21;73.11
70133;BME280;57495;49.922;7.966;2023-03-01T06:52:23;100851.09;;;0.18;73.20
70133;BME280;57495;49.922;7.966;2023-03-01T06:54:25;100853.31;;;0.05;72.83
70133;BME280;57495;49.922;7.966;2023-03-01T06:56:26;100858.19;;;0.16;72.80
70133;BME280;57495;49.922;7.966;2023-03-01T06:58:28;100857.00;;;0.25;72.49
70133;BME280;57495;49.922;7.966;2023-03-01T07:00:30;100846.59;;;0.22;72.58
70133;BME280;57495;49.922;7.966;2023-03-01T07:02:31;100849.00;;;0.28;72.47
70133;BME280;57495;49.922;7.966;2023-03-01T07:04:34;100850.47;;;0.35;72.68
70133;BME280;57495;49.922;7.966;2023-03-01T07:06:35;100846.88;;;0.14;73.82
70133;BME280;57495;49.922;7.966;2023-03-01T07:08:38;100852.31;;;0.33;74.01
70133;BME280;57495;49.922;7.966;2023-03-01T07:10:40;100851.91;;;0.44;73.74
70133;BME280;57495;49.922;7.966;2023-03-01T07:12:41;100850.84;;;0.49;73.13
70133;BME280;57495;49.922;7.966;2023-03-01T07:14:43;100856.69;;;0.57;72.23
70133;BME280;57495;49.922;7.966;2023-03-01T07:16:45;100858.03;;;0.68;70.58
70133;BME280;57495;49.922;7.966;2023-03-01T07:18:46;100856.41;;;0.87;70.35
70133;BME280;57495;49.922;7.966;2023-03-01T07:20:48;100845.22;;;1.04;70.07
70133;BME280;57495;49.922;7.966;2023-03-01T07:22:49;100850.56;;;1.23;69.42
70133;BME280;57495;49.922;7.966;2023-03-01T07:24:52;100845.97;;;1.28;68.84
70133;BME280;57495;49.922;7.966;2023-03-01T07:26:54;100849.81;;;1.42;68.07
70133;BME280;57495;49.922;7.966;2023-03-01T07:28:55;100844.44;;;1.45;68.15
70133;BME280;57495;49.922;7.966;2023-03-01T07:31:00;100846.13;;;1.46;68.23
70133;BME280;57495;49.922;7.966;2023-03-01T07:33:02;100847.59;;;1.53;67.54
70133;BME280;57495;49.922;7.966;2023-03-01T07:35:06;100838.56;;;1.59;67.91
70133;BME280;57495;49.922;7.966;2023-03-01T07:37:07;100841.03;;;1.84;68.03
70133;BME280;57495;49.922;7.966;2023-03-01T07:39:09;100842.31;;;1.94;69.26
70133;BME280;57495;49.922;7.966;2023-03-01T07:41:12;100839.94;;;2.08;68.59
70133;BME280;57495;49.922;7.966;2023-03-01T07:43:14;100841.06;;;2.03;67.38
70133;BME280;57495;49.922;7.966;2023-03-01T07:45:15;100837.66;;;2.20;67.93
70133;BME280;57495;49.922;7.966;2023-03-01T07:47:17;100827.91;;;2.22;67.39
70133;BME280;57495;49.922;7.966;2023-03-01T07:49:18;100830.13;;;2.31;67.42
70133;BME280;57495;49.922;7.966;2023-03-01T07:51:20;100827.59;;;2.48;68.05
70133;BME280;57495;49.922;7.966;2023-03-01T07:53:24;100836.72;;;2.60;68.11
70133;BME280;57495;49.922;7.966;2023-03-01T07:55:26;100829.00;;;2.56;66.37
70133;BME280;57495;49.922;7.966;2023-03-01T07:57:28;100821.16;;;2.73;65.13
70133;BME280;57495;49.922;7.966;2023-03-01T07:59:31;100821.72;;;2.80;65.02
70133;BME280;57495;49.922;7.966;2023-03-01T08:01:33;100824.25;;;3.00;65.65
70133;BME280;57495;49.922;7.966;2023-03-01T08:03:35;100830.25;;;3.04;65.19
70133;BME280;57495;49.922;7.966;2023-03-01T08:05:37;100817.19;;;3.18;63.13
70133;BME280;57495;49.922;7.966;2023-03-01T08:07:38;100816.38;;;3.35;62.54
70133;BME280;57495;49.922;7.966;2023-03-01T08:09:40;100817.75;;;3.42;61.34
70133;BME280;57495;49.922;7.966;2023-03-01T08:11:41;100820.63;;;3.55;60.71
70133;BME280;57495;49.922;7.966;2023-03-01T08:13:47;100816.75;;;3.80;60.48
70133;BME280;57495;49.922;7.966;2023-03-01T08:15:49;100812.88;;;3.87;60.67
70133;BME280;57495;49.922;7.966;2023-03-01T08:17:50;100818.03;;;3.88;58.51
70133;BME280;57495;49.922;7.966;2023-03-01T08:19:52;100819.91;;;3.86;59.02
70133;BME280;57495;49.922;7.966;2023-03-01T08:21:53;100814.13;;;3.80;59.05
70133;BME280;57495;49.922;7.966;2023-03-01T08:23:55;100815.31;;;3.90;58.44
70133;BME280;57495;49.922;7.966;2023-03-01T08:26:03;100812.09;;;3.85;58.17
70133;BME280;57495;49.922;7.966;2023-03-01T08:28:06;100818.25;;;4.01;58.10
70133;BME280;57495;49.922;7.966;2023-03-01T08:30:11;100811.44;;;3.97;57.55
70133;BME280;57495;49.922;7.966;2023-03-01T08:32:12;100799.91;;;3.98;57.48
70133;BME280;57495;49.922;7.966;2023-03-01T08:34:17;100810.50;;;3.98;57.34
70133;BME280;57495;49.922;7.966;2023-03-01T08:36:19;100804.94;;;4.03;56.87
70133;BME280;57495;49.922;7.966;2023-03-01T08:38:21;100798.00;;;4.18;56.57
70133;BME280;57495;49.922;7.966;2023-03-01T08:40:22;100795.78;;;4.26;56.50
70133;BME280;57495;49.922;7.966;2023-03-01T08:42:26;100804.31;;;4.31;56.22
70133;BME280;57495;49.922;7.966;2023-03-01T08:44:28;100794.53;;;4.33;56.56
70133;BME280;57495;49.922;7.966;2023-03-01T08:46:32;100801.78;;;4.45;55.70
70133;BME280;57495;49.922;7.966;2023-03-01T08:48:37;100796.84;;;4.71;55.90
70133;BME280;57495;49.922;7.966;2023-03-01T08:50:38;100799.75;;;4.67;55.30
70133;BME280;57495;49.922;7.966;2023-03-01T08:52:39;100793.09;;;4.59;55.03
70133;BME280;57495;49.922;7.966;2023-03-01T08:54:41;100797.19;;;4.65;54.52
70133;BME280;57495;49.922;7.966;2023-03-01T08:56:42;100800.09;;;4.76;55.12
70133;BME280;57495;49.922;7.966;2023-03-01T08:58:44;100787.97;;;4.72;54.27
70133;BME280;57495;49.922;7.966;2023-03-01T09:00:46;100791.47;;;4.89;55.19
70133;BME280;57495;49.922;7.966;2023-03-01T09:02:49;100786.06;;;4.90;53.98
70133;BME280;57495;49.922;7.966;2023-03-01T09:04:50;100774.84;;;5.01;54.43
70133;BME280;57495;49.922;7.966;2023-03-01T09:06:52;100784.84;;;4.96;54.11
70133;BME280;57495;49.922;7.966;2023-03-01T09:08:53;100785.03;;;4.93;53.87
70133;BME280;57495;49.922;7.966;2023-03-01T09:10:55;100773.91;;;5.02;54.14
70133;BME280;57495;49.922;7.966;2023-03-01T09:12:56;100773.38;;;5.11;53.76
70133;BME280;57495;49.922;7.966;2023-03-01T09:14:58;100777.59;;;5.30;53.42
70133;BME280;57495;49.922;7.966;2023-03-01T09:16:59;100767.22;;;5.41;53.19
70133;BME280;57495;49.922;7.966;2023-03-01T09:19:04;100760.25;;;5.24;53.15
70133;BME280;57495;49.922;7.966;2023-03-01T09:21:07;100758.28;;;5.28;52.50
70133;BME280;57495;49.922;7.966;2023-03-01T09:23:09;100760.13;;;5.56;52.58
70133;BME280;57495;49.922;7.966;2023-03-01T09:25:10;100762.09;;;5.08;52.74
70133;BME280;57495;49.922;7.966;2023-03-01T09:27:12;100763.75;;;5.69;53.01
70133;BME280;57495;49.922;7.966;2023-03-01T09:29:15;100761.69;;;5.74;51.92
70133;BME280;57495;49.922;7.966;2023-03-01T09:31:19;100761.78;;;5.87;51.73
70133;BME280;57495;49.922;7.966;2023-03-01T09:33:20;100760.28;;;5.97;51.51
70133;BME280;57495;49.922;7.966;2023-03-01T09:35:23;100766.75;;;6.22;51.42
70133;BME280;57495;49.922;7.966;2023-03-01T09:37:27;100755.56;;;6.17;50.76
70133;BME280;57495;49.922;7.966;2023-03-01T09:39:28;100759.72;;;6.21;50.45
70133;BME280;57495;49.922;7.966;2023-03-01T09:41:38;100759.69;;;6.50;50.37
70133;BME280;57495;49.922;7.966;2023-03-01T09:43:47;100753.19;;;6.68;49.85
70133;BME280;57495;49.922;7.966;2023-03-01T09:45:54;100756.63;;;6.56;49.42
70133;BME280;57495;49.922;7.966;2023-03-01T09:47:58;100757.25;;;6.74;49.75
70133;BME280;57495;49.922;7.966;2023-03-01T09:50:04;100760.94;;;6.71;49.64
70133;BME280;57495;49.922;7.966;2023-03-01T09:52:19;100761.69;;;6.73;48.11
70133;BME280;57495;49.922;7.966;2023-03-01T09:54:22;100754.88;;;6.69;49.38
70133;BME280;57495;49.922;7.966;2023-03-01T09:56:28;100750.00;;;7.03;49.24
70133;BME280;57495;49.922;7.966;2023-03-01T09:58:42;100744.97;;;7.26;48.79
70133;BME280;57495;49.922;7.966;2023-03-01T10:00:50;100752.31;;;6.95;48.11
70133;BME280;57495;49.922;7.966;2023-03-01T10:02:56;100744.00;;;7.27;48.66
70133;BME280;57495;49.922;7.966;2023-03-01T10:05:09;100739.13;;;7.46;49.23
70133;BME280;57495;49.922;7.966;2023-03-01T10:07:23;100739.06;;;9.79;63.21
70133;BME280;57495;49.922;7.966;2023-03-01T10:09:30;100737.28;;;10.80;55.20
70133;BME280;57495;49.922;7.966;2023-03-01T10:11:37;100727.09;;;10.74;49.20
70133;BME280;57495;49.922;7.966;2023-03-01T10:13:46;100731.34;;;11.09;47.33
70133;BME280;57495;49.922;7.966;2023-03-01T10:15:55;100739.28;;;10.21;42.08
70133;BME280;57495;49.922;7.966;2023-03-01T10:18:00;100738.06;;;9.80;42.94
70133;BME280;57495;49.922;7.966;2023-03-01T10:20:17;100721.34;;;9.20;43.81
70133;BME280;57495;49.922;7.966;2023-03-01T10:22:22;100721.59;;;8.93;44.62
70133;BME280;57495;49.922;7.966;2023-03-01T10:24:27;100721.50;;;8.70;44.08
70133;BME280;57495;49.922;7.966;2023-03-01T10:26:39;100713.19;;;8.86;44.04
70133;BME280;57495;49.922;7.966;2023-03-01T10:28:54;100711.44;;;8.74;45.00
70133;BME280;57495;49.922;7.966;2023-03-01T10:31:00;100703.72;;;8.58;43.68
70133;BME280;57495;49.922;7.966;2023-03-01T10:33:14;100699.25;;;8.83;43.65
70133;BME280;57495;49.922;7.966;2023-03-01T10:35:20;100693.00;;;8.71;44.42
70133;BME280;57495;49.922;7.966;2023-03-01T10:37:24;100694.53;;;8.62;43.92
70133;BME280;57495;49.922;7.966;2023-03-01T10:39:27;100697.06;;;8.88;44.52
70133;BME280;57495;49.922;7.966;2023-03-01T10:41:29;100680.47;;;8.60;44.12
70133;BME280;57495;49.922;7.966;2023-03-01T10:43:40;100688.03;;;8.29;45.29
70133;BME280;57495;49.922;7.966;2023-03-01T10:45:44;100672.88;;;8.67;44.20
70133;BME280;57495;49.922;7.966;2023-03-01T10:47:48;100669.72;;;8.97;44.29
70133;BME280;57495;49.922;7.966;2023-03-01T10:50:08;100666.38;;;9.29;43.81
70133;BME280;57495;49.922;7.966;2023-03-01T10:52:24;100670.31;;;9.47;44.27